sensor_id;sensor_type;location;lat;lon;timestamp;temperature;humidity
67901;DHT22;54700;51.796;10.956;2023-11-18T00:01:46;4.80;99.90
67901;DHT22;54700;51.796;10.956;2023-11-18T00:04:13;4.80;99.90
67901;DHT22;54700;51.796;10.956;2023-11-18T00:06:43;4.80;99.90
67901;DHT22;54700;51.796;10.956;2023-11-18T00:09:11;4.80;99.90
67901;DHT22;54700;51.796;10.956;2023-11-18T00:11:40;4.70;99.90
67901;DHT22;54700;51.796;10.956;2023-11-18T00:14:07;4.70;99.90
67901;DHT22;54700;51.796;10.956;2023-11-18T00:16:35;4.70;99.90
67901;DHT22;54700;51.796;10.956;2023-11-18T00:19:06;4.70;99.90
67901;DHT22;54700;51.796;10.956;2023-11-18T00:21:34;4.60;99.90
67901;DHT22;54700;51.796;10.956;2023-11-18T00:24:03;4.50;99.90
67901;DHT22;54700;51.796;10.956;2023-11-18T00:26:31;4.40;99.90
67901;DHT22;54700;51.796;10.956;2023-11-18T00:28:58;4.30;99.90
67901;DHT22;54700;51.796;10.956;2023-11-18T00:31:27;4.30;99.90
67901;DHT22;54700;51.796;10.956;2023-11-18T00:33:54;4.30;99.90
67901;DHT22;54700;51.796;10.956;2023-11-18T00:36:22;4.20;99.90
67901;DHT22;54700;51.796;10.956;2023-11-18T00:38:49;4.20;99.90
67901;DHT22;54700;51.796;10.956;2023-11-18T00:41:17;4.30;99.90
67901;DHT22;54700;51.796;10.956;2023-11-18T00:43:44;4.40;99.90
67901;DHT22;54700;51.796;10.956;2023-11-18T00:46:11;4.40;99.90
67901;DHT22;54700;51.796;10.956;2023-11-18T00:48:38;4.50;99.90
67901;DHT22;54700;51.796;10.956;2023-11-18T00:51:05;4.50;99.90
67901;DHT22;54700;51.796;10.956;2023-11-18T00:53:33;4.50;99.90
67901;DHT22;54700;51.796;10.956;2023-11-18T00:56:00;4.60;99.90
67901;DHT22;54700;51.796;10.956;2023-11-18T00:58:29;4.60;99.90
67901;DHT22;54700;51.796;10.956;2023-11-18T01:00:55;4.60;99.90
67901;DHT22;54700;51.796;10.956;2023-11-18T01:03:22;4.60;99.90
67901;DHT22;54700;51.796;10.956;2023-11-18T01:05:49;4.60;99.90
67901;DHT22;54700;51.796;10.956;2023-11-18T01:08:16;4.60;99.90
67901;DHT22;54700;51.796;10.956;2023-11-18T01:10:43;4.70;99.90
67901;DHT22;54700;51.796;10.956;2023-11-18T01:13:10;4.60;99.90
67901;DHT22;54700;51.796;10.956;2023-11-18T01:15:38;4.60;99.90
67901;DHT22;54700;51.796;10.956;2023-11-18T01:18:05;4.50;99.90
67901;DHT22;54700;51.796;10.956;2023-11-18T01:20:32;4.50;99.90
67901;DHT22;54700;51.796;10.956;2023-11-18T01:22:59;4.50;99.90
67901;DHT22;54700;51.796;10.956;2023-11-18T01:25:26;4.50;99.90
67901;DHT22;54700;51.796;10.956;2023-11-18T01:27:53;4.50;99.90
67901;DHT22;54700;51.796;10.956;2023-11-18T01:30:19;4.40;99.90
67901;DHT22;54700;51.796;10.956;2023-11-18T01:32:50;4.30;99.90
67901;DHT22;54700;51.796;10.956;2023-11-18T01:35:17;4.20;99.90
67901;DHT22;54700;51.796;10.956;2023-11-18T01:37:45;4.20;99.90
67901;DHT22;54700;51.796;10.956;2023-11-18T01:40:13;4.20;99.90
67901;DHT22;54700;51.796;10.956;2023-11-18T01:42:41;4.20;99.90
67901;DHT22;54700;51.796;10.956;2023-11-18T01:45:09;4.20;99.90
67901;DHT22;54700;51.796;10.956;2023-11-18T01:47:37;4.20;99.90
67901;DHT22;54700;51.796;10.956;2023-11-18T01:50:07;4.20;99.90
67901;DHT22;54700;51.796;10.956;2023-11-18T01:52:36;4.30;99.90
67901;DHT22;54700;51.796;10.956;2023-11-18T01:55:04;4.30;99.90
67901;DHT22;54700;51.796;10.956;2023-11-18T01:57:32;4.30;99.90
67901;DHT22;54700;51.796;10.956;2023-11-18T01:59:59;4.30;99.90
67901;DHT22;54700;51.796;10.956;2023-11-18T02:02:31;4.30;99.90
67901;DHT22;54700;51.796;10.956;2023-11-18T02:04:58;4.30;99.90
67901;DHT22;54700;51.796;10.956;2023-11-18T02:07:27;4.40;99.90
67901;DHT22;54700;51.796;10.956;2023-11-18T02:09:55;4.40;99.90
67901;DHT22;54700;51.796;10.956;2023-11-18T02:12:23;4.50;99.90
67901;DHT22;54700;51.796;10.956;2023-11-18T02:14:55;4.50;99.90
67901;DHT22;54700;51.796;10.956;2023-11-18T02:17:25;4.60;99.90
67901;DHT22;54700;51.796;10.956;2023-11-18T02:19:55;4.70;99.90
67901;DHT22;54700;51.796;10.956;2023-11-18T02:22:23;4.70;99.90
67901;DHT22;54700;51.796;10.956;2023-11-18T02:24:53;4.70;99.90
67901;DHT22;54700;51.796;10.956;2023-11-18T02:27:21;4.70;99.90
67901;DHT22;54700;51.796;10.956;2023-11-18T02:29:51;4.80;99.90
67901;DHT22;54700;51.796;10.956;2023-11-18T02:32:18;4.80;99.90
67901;DHT22;54700;51.796;10.956;2023-11-18T02:34:54;4.80;99.90
67901;DHT22;54700;51.796;10.956;2023-11-18T02:37:29;4.80;99.90
67901;DHT22;54700;51.796;10.956;2023-11-18T02:40:00;4.80;99.90
67901;DHT22;54700;51.796;10.956;2023-11-18T02:42:35;4.80;99.90
67901;DHT22;54700;51.796;10.956;2023-11-18T02:45:03;4.80;99.90
67901;DHT22;54700;51.796;10.956;2023-11-18T02:47:33;4.80;99.90
67901;DHT22;54700;51.796;10.956;2023-11-18T02:50:00;4.90;99.90
67901;DHT22;54700;51.796;10.956;2023-11-18T02:52:36;4.90;99.90
67901;DHT22;54700;51.796;10.956;2023-11-18T02:55:03;4.90;99.90
67901;DHT22;54700;51.796;10.956;2023-11-18T02:57:32;4.80;99.90
67901;DHT22;54700;51.796;10.956;2023-11-18T03:00:00;4.80;99.90
67901;DHT22;54700;51.796;10.956;2023-11-18T03:02:29;4.90;99.90
67901;DHT22;54700;51.796;10.956;2023-11-18T03:04:56;4.90;99.90
67901;DHT22;54700;51.796;10.956;2023-11-18T03:07:23;4.80;99.90
67901;DHT22;54700;51.796;10.956;2023-11-18T03:09:52;4.80;99.90
67901;DHT22;54700;51.796;10.956;2023-11-18T03:12:21;4.80;99.90
67901;DHT22;54700;51.796;10.956;2023-11-18T03:14:48;4.80;99.90
67901;DHT22;54700;51.796;10.956;2023-11-18T03:17:16;4.80;99.90
67901;DHT22;54700;51.796;10.956;2023-11-18T03:19:43;4.80;99.90
67901;DHT22;54700;51.796;10.956;2023-11-18T03:22:10;4.80;99.90
67901;DHT22;54700;51.796;10.956;2023-11-18T03:24:38;4.80;99.90
67901;DHT22;54700;51.796;10.956;2023-11-18T03:27:05;4.80;99.90
67901;DHT22;54700;51.796;10.956;2023-11-18T03:29:34;4.80;99.90
67901;DHT22;54700;51.796;10.956;2023-11-18T03:32:01;4.80;99.90
67901;DHT22;54700;51.796;10.956;2023-11-18T03:34:31;4.80;99.90
67901;DHT22;54700;51.796;10.956;2023-11-18T03:36:59;4.80;99.90
67901;DHT22;54700;51.796;10.956;2023-11-18T03:39:26;4.80;99.90
67901;DHT22;54700;51.796;10.956;2023-11-18T03:41:53;4.70;99.90
67901;DHT22;54700;51.796;10.956;2023-11-18T03:44:19;4.70;99.90
67901;DHT22;54700;51.796;10.956;2023-11-18T03:46:46;4.70;99.90
67901;DHT22;54700;51.796;10.956;2023-11-18T03:49:13;4.70;99.90
67901;DHT22;54700;51.796;10.956;2023-11-18T03:51:42;4.70;99.90
67901;DHT22;54700;51.796;10.956;2023-11-18T03:54:08;4.60;99.90
67901;DHT22;54700;51.796;10.956;2023-11-18T03:56:37;4.60;99.90
67901;DHT22;54700;51.796;10.956;2023-11-18T03:59:04;4.60;99.90
67901;DHT22;54700;51.796;10.956;2023-11-18T04:01:31;4.60;99.90
67901;DHT22;54700;51.796;10.956;2023-11-18T04:03:58;4.60;99.90
67901;DHT22;54700;51.796;10.956;2023-11-18T04:06:25;4.50;99.90
67901;DHT22;54700;51.796;10.956;2023-11-18T04:08:53;4.50;99.90
67901;DHT22;54700;51.796;10.956;2023-11-18T04:11:20;4.40;99.90
67901;DHT22;54700;51.796;10.956;2023-11-18T04:13:50;4.30;99.90
67901;DHT22;54700;51.796;10.956;2023-11-18T04:16:18;4.20;99.90
67901;DHT22;54700;51.796;10.956;2023-11-18T04:18:45;4.10;99.90
67901;DHT22;54700;51.796;10.956;2023-11-18T04:21:12;4.00;99.90
67901;DHT22;54700;51.796;10.956;2023-11-18T04:23:41;3.90;99.90
67901;DHT22;54700;51.796;10.956;2023-11-18T04:26:10;3.80;99.90
67901;DHT22;54700;51.796;10.956;2023-11-18T04:28:37;3.70;99.90
67901;DHT22;54700;51.796;10.956;2023-11-18T04:31:04;3.60;99.90
67901;DHT22;54700;51.796;10.956;2023-11-18T04:33:32;3.60;99.90
67901;DHT22;54700;51.796;10.956;2023-11-18T04:35:59;3.60;99.90
67901;DHT22;54700;51.796;10.956;2023-11-18T04:38:26;3.60;99.90
67901;DHT22;54700;51.796;10.956;2023-11-18T04:40:53;3.60;99.90
67901;DHT22;54700;51.796;10.956;2023-11-18T04:43:22;3.60;99.90
67901;DHT22;54700;51.796;10.956;2023-11-18T04:45:49;3.60;99.90
67901;DHT22;54700;51.796;10.956;2023-11-18T04:48:15;3.60;99.90
67901;DHT22;54700;51.796;10.956;2023-11-18T04:50:42;3.50;99.90
67901;DHT22;54700;51.796;10.956;2023-11-18T04:53:10;3.50;99.90
67901;DHT22;54700;51.796;10.956;2023-11-18T04:55:37;3.50;99.90
67901;DHT22;54700;51.796;10.956;2023-11-18T04:58:05;3.50;99.90
67901;DHT22;54700;51.796;10.956;2023-11-18T05:00:35;3.40;99.90
67901;DHT22;54700;51.796;10.956;2023-11-18T05:03:03;3.40;99.90
67901;DHT22;54700;51.796;10.956;2023-11-18T05:05:31;3.40;99.90
67901;DHT22;54700;51.796;10.956;2023-11-18T05:07:58;3.50;99.90
67901;DHT22;54700;51.796;10.956;2023-11-18T05:10:25;3.50;99.90
67901;DHT22;54700;51.796;10.956;2023-11-18T05:12:52;3.50;99.90
67901;DHT22;54700;51.796;10.956;2023-11-18T05:15:21;3.50;99.90
67901;DHT22;54700;51.796;10.956;2023-11-18T05:17:51;3.60;99.90
67901;DHT22;54700;51.796;10.956;2023-11-18T05:20:18;3.60;99.90
67901;DHT22;54700;51.796;10.956;2023-11-18T05:22:46;3.60;99.90
67901;DHT22;54700;51.796;10.956;2023-11-18T05:25:13;3.60;99.90
67901;DHT22;54700;51.796;10.956;2023-11-18T05:27:40;3.70;99.90
67901;DHT22;54700;51.796;10.956;2023-11-18T05:30:09;3.70;99.90
67901;DHT22;54700;51.796;10.956;2023-11-18T05:32:36;3.70;99.90
67901;DHT22;54700;51.796;10.956;2023-11-18T05:35:05;3.70;99.90
67901;DHT22;54700;51.796;10.956;2023-11-18T05:37:32;3.80;99.90
67901;DHT22;54700;51.796;10.956;2023-11-18T05:40:03;3.90;99.90
67901;DHT22;54700;51.796;10.956;2023-11-18T05:42:32;3.90;99.90
67901;DHT22;54700;51.796;10.956;2023-11-18T05:45:02;3.90;99.90
67901;DHT22;54700;51.796;10.956;2023-11-18T05:47:29;3.90;99.90
67901;DHT22;54700;51.796;10.956;2023-11-18T05:49:56;4.00;99.90
67901;DHT22;54700;51.796;10.956;2023-11-18T05:52:24;4.00;99.90
67901;DHT22;54700;51.796;10.956;2023-11-18T05:54:52;4.00;99.90
67901;DHT22;54700;51.796;10.956;2023-11-18T05:57:19;4.10;99.90
67901;DHT22;54700;51.796;10.956;2023-11-18T05:59:46;4.10;99.90
67901;DHT22;54700;51.796;10.956;2023-11-18T06:02:14;4.10;99.90
67901;DHT22;54700;51.796;10.956;2023-11-18T06:04:43;4.10;99.90
67901;DHT22;54700;51.796;10.956;2023-11-18T06:07:10;4.00;99.90
67901;DHT22;54700;51.796;10.956;2023-11-18T06:09:40;4.00;99.90
67901;DHT22;54700;51.796;10.956;2023-11-18T06:12:07;4.00;99.90
67901;DHT22;54700;51.796;10.956;2023-11-18T06:14:35;3.90;99.90
67901;DHT22;54700;51.796;10.956;2023-11-18T06:17:02;3.80;99.90
67901;DHT22;54700;51.796;10.956;2023-11-18T06:19:32;3.70;99.90
67901;DHT22;54700;51.796;10.956;2023-11-18T06:21:59;3.60;99.90
67901;DHT22;54700;51.796;10.956;2023-11-18T06:24:26;3.50;99.90
67901;DHT22;54700;51.796;10.956;2023-11-18T06:26:54;3.40;99.90
67901;DHT22;54700;51.796;10.956;2023-11-18T06:29:21;3.30;99.90
67901;DHT22;54700;51.796;10.956;2023-11-18T06:31:49;3.20;99.90
67901;DHT22;54700;51.796;10.956;2023-11-18T06:34:15;3.20;99.90
67901;DHT22;54700;51.796;10.956;2023-11-18T06:36:43;3.10;99.90
67901;DHT22;54700;51.796;10.956;2023-11-18T06:39:11;3.10;99.90
67901;DHT22;54700;51.796;10.956;2023-11-18T06:41:38;3.00;99.90
67901;DHT22;54700;51.796;10.956;2023-11-18T06:44:15;3.00;99.90
67901;DHT22;54700;51.796;10.956;2023-11-18T06:46:43;2.90;99.90
67901;DHT22;54700;51.796;10.956;2023-11-18T06:49:10;3.00;99.90
67901;DHT22;54700;51.796;10.956;2023-11-18T06:51:40;3.00;99.90
67901;DHT22;54700;51.796;10.956;2023-11-18T06:54:08;3.00;99.90
67901;DHT22;54700;51.796;10.956;2023-11-18T06:56:35;3.10;99.90
67901;DHT22;54700;51.796;10.956;2023-11-18T06:59:04;3.20;99.90
67901;DHT22;54700;51.796;10.956;2023-11-18T07:01:34;3.20;99.90
67901;DHT22;54700;51.796;10.956;2023-11-18T07:04:01;3.30;99.90
67901;DHT22;54700;51.796;10.956;2023-11-18T07:06:28;3.40;99.90
67901;DHT22;54700;51.796;10.956;2023-11-18T07:08:56;3.40;99.90
67901;DHT22;54700;51.796;10.956;2023-11-18T07:11:25;3.50;99.90
67901;DHT22;54700;51.796;10.956;2023-11-18T07:13:53;3.50;99.90
67901;DHT22;54700;51.796;10.956;2023-11-18T07:16:22;3.50;99.90
67901;DHT22;54700;51.796;10.956;2023-11-18T07:18:51;3.60;99.90
67901;DHT22;54700;51.796;10.956;2023-11-18T07:21:19;3.60;99.90
67901;DHT22;54700;51.796;10.956;2023-11-18T07:23:46;3.70;99.90
67901;DHT22;54700;51.796;10.956;2023-11-18T07:26:13;3.70;99.90
67901;DHT22;54700;51.796;10.956;2023-11-18T07:28:40;3.80;99.90
67901;DHT22;54700;51.796;10.956;2023-11-18T07:31:09;3.80;99.90
67901;DHT22;54700;51.796;10.956;2023-11-18T07:33:36;3.80;99.90
67901;DHT22;54700;51.796;10.956;2023-11-18T07:36:05;3.80;99.90
67901;DHT22;54700;51.796;10.956;2023-11-18T07:38:36;3.80;99.90
67901;DHT22;54700;51.796;10.956;2023-11-18T07:41:04;3.80;99.90
67901;DHT22;54700;51.796;10.956;2023-11-18T07:43:33;3.80;99.90
67901;DHT22;54700;51.796;10.956;2023-11-18T07:46:02;3.80;99.90
67901;DHT22;54700;51.796;10.956;2023-11-18T07:48:33;3.80;99.90
67901;DHT22;54700;51.796;10.956;2023-11-18T07:51:00;3.90;99.90
67901;DHT22;54700;51.796;10.956;2023-11-18T07:53:28;4.00;99.90
67901;DHT22;54700;51.796;10.956;2023-11-18T07:55:55;4.00;99.90
67901;DHT22;54700;51.796;10.956;2023-11-18T07:58:22;4.10;99.90
67901;DHT22;54700;51.796;10.956;2023-11-18T08:00:49;4.20;99.90
67901;DHT22;54700;51.796;10.956;2023-11-18T08:03:17;4.30;99.90
67901;DHT22;54700;51.796;10.956;2023-11-18T08:05:46;4.40;99.90
67901;DHT22;54700;51.796;10.956;2023-11-18T08:08:14;4.50;99.90
67901;DHT22;54700;51.796;10.956;2023-11-18T08:10:43;4.60;99.90
67901;DHT22;54700;51.796;10.956;2023-11-18T08:13:10;4.70;99.60
67901;DHT22;54700;51.796;10.956;2023-11-18T08:15:38;4.80;99.30
67901;DHT22;54700;51.796;10.956;2023-11-18T08:18:06;4.90;98.90
67901;DHT22;54700;51.796;10.956;2023-11-18T08:20:35;4.80;98.60
67901;DHT22;54700;51.796;10.956;2023-11-18T08:23:02;4.80;98.90
67901;DHT22;54700;51.796;10.956;2023-11-18T08:25:30;4.90;99.00
67901;DHT22;54700;51.796;10.956;2023-11-18T08:28:00;4.90;98.90
67901;DHT22;54700;51.796;10.956;2023-11-18T08:30:27;4.90;98.40
67901;DHT22;54700;51.796;10.956;2023-11-18T08:32:54;5.00;97.90
67901;DHT22;54700;51.796;10.956;2023-11-18T08:35:21;5.00;97.40
67901;DHT22;54700;51.796;10.956;2023-11-18T08:37:48;5.00;97.40
67901;DHT22;54700;51.796;10.956;2023-11-18T08:40:16;5.00;96.80
67901;DHT22;54700;51.796;10.956;2023-11-18T08:42:47;5.10;96.70
67901;DHT22;54700;51.796;10.956;2023-11-18T08:45:17;5.10;96.70
67901;DHT22;54700;51.796;10.956;2023-11-18T08:47:47;5.10;96.90
67901;DHT22;54700;51.796;10.956;2023-11-18T08:50:15;5.10;96.60
67901;DHT22;54700;51.796;10.956;2023-11-18T08:52:42;5.10;96.60
67901;DHT22;54700;51.796;10.956;2023-11-18T08:55:12;5.10;96.60
67901;DHT22;54700;51.796;10.956;2023-11-18T08:57:44;5.10;96.30
67901;DHT22;54700;51.796;10.956;2023-11-18T09:00:26;5.10;96.20
67901;DHT22;54700;51.796;10.956;2023-11-18T09:03:12;5.10;96.10
67901;DHT22;54700;51.796;10.956;2023-11-18T09:05:43;5.10;96.20
67901;DHT22;54700;51.796;10.956;2023-11-18T09:08:22;5.20;96.10
67901;DHT22;54700;51.796;10.956;2023-11-18T09:10:55;5.10;95.60
67901;DHT22;54700;51.796;10.956;2023-11-18T09:13:22;5.10;95.90
67901;DHT22;54700;51.796;10.956;2023-11-18T09:15:55;5.10;95.50
67901;DHT22;54700;51.796;10.956;2023-11-18T09:18:23;5.10;95.70
67901;DHT22;54700;51.796;10.956;2023-11-18T09:20:51;5.20;95.70
67901;DHT22;54700;51.796;10.956;2023-11-18T09:23:20;5.30;95.50
67901;DHT22;54700;51.796;10.956;2023-11-18T09:25:48;5.50;95.20
67901;DHT22;54700;51.796;10.956;2023-11-18T09:28:15;5.60;94.80
67901;DHT22;54700;51.796;10.956;2023-11-18T09:30:44;5.70;94.10
67901;DHT22;54700;51.796;10.956;2023-11-18T09:33:20;5.80;94.40
67901;DHT22;54700;51.796;10.956;2023-11-18T09:35:58;5.80;94.20
67901;DHT22;54700;51.796;10.956;2023-11-18T09:38:25;5.90;94.10
67901;DHT22;54700;51.796;10.956;2023-11-18T09:40:54;5.90;93.80
67901;DHT22;54700;51.796;10.956;2023-11-18T09:43:23;5.90;93.60
67901;DHT22;54700;51.796;10.956;2023-11-18T09:45:54;5.80;93.50
67901;DHT22;54700;51.796;10.956;2023-11-18T09:48:23;5.80;93.80
67901;DHT22;54700;51.796;10.956;2023-11-18T09:50:52;5.70;93.60
67901;DHT22;54700;51.796;10.956;2023-11-18T09:53:19;5.70;94.00
67901;DHT22;54700;51.796;10.956;2023-11-18T09:55:54;5.70;94.10
67901;DHT22;54700;51.796;10.956;2023-11-18T09:58:25;5.60;94.00
67901;DHT22;54700;51.796;10.956;2023-11-18T10:01:01;5.60;93.70
67901;DHT22;54700;51.796;10.956;2023-11-18T10:03:31;5.60;94.00
67901;DHT22;54700;51.796;10.956;2023-11-18T10:06:01;5.60;94.20
67901;DHT22;54700;51.796;10.956;2023-11-18T10:08:31;5.70;94.20
67901;DHT22;54700;51.796;10.956;2023-11-18T10:10:58;5.70;93.70
67901;DHT22;54700;51.796;10.956;2023-11-18T10:13:31;5.70;93.70
67901;DHT22;54700;51.796;10.956;2023-11-18T10:16:00;5.70;93.50
67901;DHT22;54700;51.796;10.956;2023-11-18T10:18:31;5.80;93.70
67901;DHT22;54700;51.796;10.956;2023-11-18T10:21:01;5.70;93.90
67901;DHT22;54700;51.796;10.956;2023-11-18T10:23:33;5.70;93.60
67901;DHT22;54700;51.796;10.956;2023-11-18T10:26:03;5.60;93.50
67901;DHT22;54700;51.796;10.956;2023-11-18T10:28:31;5.60;93.80
67901;DHT22;54700;51.796;10.956;2023-11-18T10:31:03;5.50;94.10
67901;DHT22;54700;51.796;10.956;2023-11-18T10:33:34;5.50;94.40
67901;DHT22;54700;51.796;10.956;2023-11-18T10:36:03;5.50;94.60
67901;DHT22;54700;51.796;10.956;2023-11-18T10:38:38;5.50;94.00
67901;DHT22;54700;51.796;10.956;2023-11-18T10:41:08;5.50;94.10
67901;DHT22;54700;51.796;10.956;2023-11-18T10:43:37;5.50;94.00
67901;DHT22;54700;51.796;10.956;2023-11-18T10:46:07;5.50;94.00
67901;DHT22;54700;51.796;10.956;2023-11-18T10:48:42;5.60;94.10
67901;DHT22;54700;51.796;10.956;2023-11-18T10:51:09;5.70;94.00
67901;DHT22;54700;51.796;10.956;2023-11-18T10:53:39;5.70;93.70
67901;DHT22;54700;51.796;10.956;2023-11-18T10:56:16;5.80;93.30
67901;DHT22;54700;51.796;10.956;2023-11-18T10:58:49;5.80;93.20
67901;DHT22;54700;51.796;10.956;2023-11-18T11:01:26;5.90;92.90
67901;DHT22;54700;51.796;10.956;2023-11-18T11:03:55;6.00;93.00
67901;DHT22;54700;51.796;10.956;2023-11-18T11:06:23;6.10;92.90
67901;DHT22;54700;51.796;10.956;2023-11-18T11:08:50;6.10;92.80
67901;DHT22;54700;51.796;10.956;2023-11-18T11:11:19;6.10;92.70
67901;DHT22;54700;51.796;10.956;2023-11-18T11:13:49;6.20;91.90
67901;DHT22;54700;51.796;10.956;2023-11-18T11:16:20;6.20;91.60
67901;DHT22;54700;51.796;10.956;2023-11-18T11:18:55;6.20;91.30
67901;DHT22;54700;51.796;10.956;2023-11-18T11:21:35;6.20;91.40
67901;DHT22;54700;51.796;10.956;2023-11-18T11:24:15;6.20;91.00
67901;DHT22;54700;51.796;10.956;2023-11-18T11:26:50;6.20;90.90
67901;DHT22;54700;51.796;10.956;2023-11-18T11:29:30;6.20;91.00
67901;DHT22;54700;51.796;10.956;2023-11-18T11:32:07;6.20;91.20
67901;DHT22;54700;51.796;10.956;2023-11-18T11:34:47;6.20;91.20
67901;DHT22;54700;51.796;10.956;2023-11-18T11:37:19;6.20;91.00
67901;DHT22;54700;51.796;10.956;2023-11-18T11:39:51;6.20;91.10
67901;DHT22;54700;51.796;10.956;2023-11-18T11:42:20;6.10;91.00
67901;DHT22;54700;51.796;10.956;2023-11-18T11:44:49;6.10;91.10
67901;DHT22;54700;51.796;10.956;2023-11-18T11:47:21;6.10;90.90
67901;DHT22;54700;51.796;10.956;2023-11-18T11:49:57;6.00;90.90
67901;DHT22;54700;51.796;10.956;2023-11-18T11:52:35;5.90;90.90
67901;DHT22;54700;51.796;10.956;2023-11-18T11:55:09;6.00;91.10
67901;DHT22;54700;51.796;10.956;2023-11-18T11:57:49;5.90;90.70
67901;DHT22;54700;51.796;10.956;2023-11-18T12:00:18;5.90;90.40
67901;DHT22;54700;51.796;10.956;2023-11-18T12:02:52;5.90;90.60
67901;DHT22;54700;51.796;10.956;2023-11-18T12:05:21;5.90;90.70
67901;DHT22;54700;51.796;10.956;2023-11-18T12:07:52;5.90;90.50
67901;DHT22;54700;51.796;10.956;2023-11-18T12:10:20;5.90;90.30
67901;DHT22;54700;51.796;10.956;2023-11-18T12:12:47;6.00;90.00
67901;DHT22;54700;51.796;10.956;2023-11-18T12:15:26;6.00;89.70
67901;DHT22;54700;51.796;10.956;2023-11-18T12:18:20;6.10;89.80
67901;DHT22;54700;51.796;10.956;2023-11-18T12:20:48;6.10;88.60
67901;DHT22;54700;51.796;10.956;2023-11-18T12:23:19;6.10;88.60
67901;DHT22;54700;51.796;10.956;2023-11-18T12:25:50;6.10;89.30
67901;DHT22;54700;51.796;10.956;2023-11-18T12:28:24;6.20;88.70
67901;DHT22;54700;51.796;10.956;2023-11-18T12:30:53;6.20;89.70
67901;DHT22;54700;51.796;10.956;2023-11-18T12:36:50;6.20;89.20
67901;DHT22;54700;51.796;10.956;2023-11-18T12:39:55;6.20;90.00
67901;DHT22;54700;51.796;10.956;2023-11-18T12:42:57;6.30;89.30
67901;DHT22;54700;51.796;10.956;2023-11-18T12:48:41;6.30;89.00
67901;DHT22;54700;51.796;10.956;2023-11-18T12:51:12;6.30;89.50
67901;DHT22;54700;51.796;10.956;2023-11-18T12:53:48;6.30;89.40
67901;DHT22;54700;51.796;10.956;2023-11-18T12:56:19;6.30;89.60
67901;DHT22;54700;51.796;10.956;2023-11-18T12:58:49;6.20;89.50
67901;DHT22;54700;51.796;10.956;2023-11-18T13:01:16;6.20;90.20
67901;DHT22;54700;51.796;10.956;2023-11-18T13:03:44;6.20;90.40
67901;DHT22;54700;51.796;10.956;2023-11-18T13:06:12;6.30;90.70
67901;DHT22;54700;51.796;10.956;2023-11-18T13:08:39;6.30;90.60
67901;DHT22;54700;51.796;10.956;2023-11-18T13:11:08;6.30;90.80
67901;DHT22;54700;51.796;10.956;2023-11-18T13:13:41;6.30;90.80
67901;DHT22;54700;51.796;10.956;2023-11-18T13:16:09;6.20;90.70
67901;DHT22;54700;51.796;10.956;2023-11-18T13:18:42;6.20;90.70
67901;DHT22;54700;51.796;10.956;2023-11-18T13:21:16;6.20;90.90
67901;DHT22;54700;51.796;10.956;2023-11-18T13:23:47;6.20;91.00
67901;DHT22;54700;51.796;10.956;2023-11-18T13:26:17;6.20;91.10
67901;DHT22;54700;51.796;10.956;2023-11-18T13:28:45;6.20;91.20
67901;DHT22;54700;51.796;10.956;2023-11-18T13:31:13;6.20;91.20
67901;DHT22;54700;51.796;10.956;2023-11-18T13:33:41;6.20;91.20
67901;DHT22;54700;51.796;10.956;2023-11-18T13:36:09;6.20;91.30
67901;DHT22;54700;51.796;10.956;2023-11-18T13:38:37;6.20;91.50
67901;DHT22;54700;51.796;10.956;2023-11-18T13:41:05;6.20;91.50
67901;DHT22;54700;51.796;10.956;2023-11-18T13:43:42;6.20;91.40
67901;DHT22;54700;51.796;10.956;2023-11-18T13:46:10;6.10;91.70
67901;DHT22;54700;51.796;10.956;2023-11-18T13:48:38;6.20;92.00
67901;DHT22;54700;51.796;10.956;2023-11-18T13:51:07;6.20;91.90
67901;DHT22;54700;51.796;10.956;2023-11-18T13:53:39;6.10;92.20
67901;DHT22;54700;51.796;10.956;2023-11-18T13:56:09;6.10;92.30
67901;DHT22;54700;51.796;10.956;2023-11-18T13:58:36;6.20;92.40
67901;DHT22;54700;51.796;10.956;2023-11-18T14:01:06;6.20;92.20
67901;DHT22;54700;51.796;10.956;2023-11-18T14:03:34;6.10;92.30
67901;DHT22;54700;51.796;10.956;2023-11-18T14:06:05;6.10;92.30
67901;DHT22;54700;51.796;10.956;2023-11-18T14:08:35;6.10;92.40
67901;DHT22;54700;51.796;10.956;2023-11-18T14:11:03;6.10;92.60
67901;DHT22;54700;51.796;10.956;2023-11-18T14:13:30;6.10;92.30
67901;DHT22;54700;51.796;10.956;2023-11-18T14:16:00;6.00;92.40
67901;DHT22;54700;51.796;10.956;2023-11-18T14:18:28;6.00;92.50
67901;DHT22;54700;51.796;10.956;2023-11-18T14:20:56;6.00;92.40
67901;DHT22;54700;51.796;10.956;2023-11-18T14:23:23;6.00;92.70
67901;DHT22;54700;51.796;10.956;2023-11-18T14:25:50;6.00;92.80
67901;DHT22;54700;51.796;10.956;2023-11-18T14:28:17;5.90;92.80
67901;DHT22;54700;51.796;10.956;2023-11-18T14:30:50;5.90;93.00
67901;DHT22;54700;51.796;10.956;2023-11-18T14:33:17;5.90;93.00
67901;DHT22;54700;51.796;10.956;2023-11-18T14:35:46;5.90;93.20
67901;DHT22;54700;51.796;10.956;2023-11-18T14:38:13;5.90;93.30
67901;DHT22;54700;51.796;10.956;2023-11-18T14:40:45;5.90;93.40
67901;DHT22;54700;51.796;10.956;2023-11-18T14:43:13;5.80;93.60
67901;DHT22;54700;51.796;10.956;2023-11-18T14:45:41;5.80;93.30
67901;DHT22;54700;51.796;10.956;2023-11-18T14:48:08;5.80;93.40
67901;DHT22;54700;51.796;10.956;2023-11-18T14:50:37;5.80;93.40
67901;DHT22;54700;51.796;10.956;2023-11-18T14:53:06;5.80;93.40
67901;DHT22;54700;51.796;10.956;2023-11-18T14:55:33;5.80;93.40
67901;DHT22;54700;51.796;10.956;2023-11-18T14:58:00;5.80;93.10
67901;DHT22;54700;51.796;10.956;2023-11-18T15:00:29;5.80;93.30
67901;DHT22;54700;51.796;10.956;2023-11-18T15:02:58;5.70;93.10
67901;DHT22;54700;51.796;10.956;2023-11-18T15:05:26;5.70;93.20
67901;DHT22;54700;51.796;10.956;2023-11-18T15:07:53;5.70;93.30
67901;DHT22;54700;51.796;10.956;2023-11-18T15:10:23;5.70;93.40
67901;DHT22;54700;51.796;10.956;2023-11-18T15:12:52;5.70;93.40
67901;DHT22;54700;51.796;10.956;2023-11-18T15:15:20;5.70;93.40
67901;DHT22;54700;51.796;10.956;2023-11-18T15:17:48;5.70;93.50
67901;DHT22;54700;51.796;10.956;2023-11-18T15:20:16;5.70;93.30
67901;DHT22;54700;51.796;10.956;2023-11-18T15:22:45;5.70;93.30
67901;DHT22;54700;51.796;10.956;2023-11-18T15:25:12;5.60;93.30
67901;DHT22;54700;51.796;10.956;2023-11-18T15:27:42;5.60;93.30
67901;DHT22;54700;51.796;10.956;2023-11-18T15:30:11;5.60;93.20
67901;DHT22;54700;51.796;10.956;2023-11-18T15:32:40;5.60;93.10
67901;DHT22;54700;51.796;10.956;2023-11-18T15:35:08;5.60;93.00
67901;DHT22;54700;51.796;10.956;2023-11-18T15:37:36;5.60;92.90
67901;DHT22;54700;51.796;10.956;2023-11-18T15:40:05;5.60;93.00
67901;DHT22;54700;51.796;10.956;2023-11-18T15:42:38;5.60;92.90
67901;DHT22;54700;51.796;10.956;2023-11-18T15:45:09;5.60;92.90
67901;DHT22;54700;51.796;10.956;2023-11-18T15:47:37;5.60;93.10
67901;DHT22;54700;51.796;10.956;2023-11-18T15:50:05;5.50;93.10